Terminal Aerodrome Forecast
Issued by NWS

Home | Current Version | Previous Version | Text Only | Print | Product List | Glossary On
Versions: 1 2 3 4 5 6 7 8 9 10 11 12 13 14 15 16 17 18 19 20
441
FTUS46 KLOX 250258 AAB
TAFSBA
TAF AMD
KSBA 250258Z 2503/2524 25008KT 2SM BR OVC003
     FM250800 11006KT 5SM BR OVC007
     FM251600 18006KT P6SM OVC012
     FM251900 23008KT P6SM FEW015=

USA.gov is the U.S. government's official web portal to all federal, state and local government web resources and services.